Time;durP1;ratioP1;P1;durP2;ratioP2;P2;SDS_P1;SDS_P2;PMS_P1;PMS_P2;Temp;Humidity;BMP_temperature;BMP_pressure;BME280_temperature;BME280_humidity;BME280_pressure;Samples;Min_cycle;Max_cycle;Signal;HPM_P1;HPM_P2
2022/03/17 00:01:41;;;;;;;27.53;15.17;;;6.00;99.90;;;6.76;100.00;98655.97;5015835;28;20466;-75
2022/03/17 00:04:11;;;;;;;27.67;16.60;;;6.00;99.90;;;6.76;100.00;98653.38;5019444;28;20481;-75
2022/03/17 00:06:42;;;;;;;28.17;16.57;;;6.10;99.90;;;6.77;100.00;98643.81;5016188;28;21016;-75
2022/03/17 00:09:11;;;;;;;26.30;15.60;;;6.10;99.90;;;6.76;100.00;98653.38;5018390;28;20462;-75
2022/03/17 00:11:41;;;;;;;25.47;15.87;;;6.00;99.90;;;6.76;100.00;98650.78;5017594;28;20529;-74
2022/03/17 00:14:11;;;;;;;30.77;15.60;;;6.00;99.90;;;6.77;100.00;98643.81;5015084;28;20496;-75
2022/03/17 00:16:46;;;;;;;27.80;14.90;;;6.00;99.90;;;6.75;100.00;98656.94;5015521;28;20466;-75
2022/03/17 00:19:16;;;;;;;27.60;14.80;;;6.00;99.90;;;6.75;100.00;98656.13;5012141;28;20977;-75
2022/03/17 00:21:46;;;;;;;31.80;18.17;;;6.00;99.90;;;6.73;100.00;98652.84;5011466;28;20712;-74
2022/03/17 00:24:17;;;;;;;27.67;16.73;;;6.10;99.90;;;6.70;100.00;98648.75;5011007;28;20864;-75
2022/03/17 00:26:47;;;;;;;27.10;14.57;;;6.10;99.90;;;6.72;100.00;98649.44;5014770;28;20881;-75
2022/03/17 00:29:19;;;;;;;26.40;16.23;;;6.00;99.90;;;6.73;100.00;98652.84;5006893;28;20875;-74
2022/03/17 00:31:50;;;;;;;31.67;16.47;;;6.00;99.90;;;6.74;100.00;98657.06;5013013;28;20811;-75
2022/03/17 00:34:19;;;;;;;31.60;17.77;;;6.00;99.90;;;6.75;100.00;98656.13;5014185;28;20462;-75
2022/03/17 00:36:49;;;;;;;26.50;15.77;;;6.00;99.90;;;6.75;100.00;98648.31;5013914;28;20498;-75
2022/03/17 00:39:19;;;;;;;26.30;16.70;;;6.00;99.90;;;6.75;100.00;98653.53;5015069;28;20455;-75
2022/03/17 00:41:48;;;;;;;28.80;16.90;;;5.90;99.90;;;6.72;100.00;98653.81;5014485;28;20465;-74
2022/03/17 00:44:17;;;;;;;26.07;16.90;;;5.90;99.90;;;6.69;100.00;98647.13;5015071;28;20545;-75
2022/03/17 00:46:49;;;;;;;26.90;16.10;;;6.00;99.90;;;6.69;100.00;98648.91;5013734;28;20612;-75
2022/03/17 00:49:18;;;;;;;25.37;15.57;;;5.90;99.90;;;6.72;100.00;98656.41;5015151;28;20517;-75
2022/03/17 00:51:48;;;;;;;28.20;16.63;;;5.90;99.90;;;6.72;100.00;98659.00;5017154;28;20558;-75
2022/03/17 00:54:18;;;;;;;31.17;17.57;;;6.00;99.90;;;6.72;100.00;98656.41;5017292;28;20483;-75
2022/03/17 00:56:48;;;;;;;27.87;16.40;;;6.00;99.90;;;6.73;100.00;98660.66;5013660;28;20470;-74
2022/03/17 00:59:19;;;;;;;28.00;16.00;;;6.00;99.90;;;6.73;100.00;98664.06;5014076;28;20506;-74
2022/03/17 01:01:50;;;;;;;26.67;16.77;;;6.00;99.90;;;6.74;100.00;98664.88;5012174;28;20466;-75
2022/03/17 01:04:21;;;;;;;26.57;16.07;;;6.00;99.90;;;6.74;100.00;98664.88;5012736;28;20961;-75
2022/03/17 01:06:52;;;;;;;25.83;16.47;;;5.90;99.90;;;6.74;100.00;98667.47;5014376;28;20541;-75
2022/03/17 01:09:22;;;;;;;24.90;15.53;;;6.00;99.90;;;6.72;100.00;98657.22;5013641;28;20467;-75
2022/03/17 01:11:52;;;;;;;32.70;16.70;;;6.00;99.90;;;6.73;100.00;98660.66;5014530;28;20465;-75
2022/03/17 01:14:21;;;;;;;25.70;15.10;;;5.90;99.90;;;6.73;100.00;98664.06;5014014;28;21015;-74
2022/03/17 01:16:52;;;;;;;28.70;17.67;;;6.00;99.90;;;6.72;100.00;98661.63;5012863;28;20521;-75
2022/03/17 01:19:21;;;;;;;27.10;15.80;;;6.10;99.90;;;6.70;100.00;98659.16;5015270;28;20454;-75
2022/03/17 01:21:51;;;;;;;22.13;14.30;;;6.00;99.90;;;6.71;100.00;98665.16;5014538;28;20474;-75
2022/03/17 01:24:22;;;;;;;29.40;16.47;;;5.90;99.90;;;6.71;100.00;98663.38;5014196;28;20462;-74
2022/03/17 01:26:53;;;;;;;28.50;17.20;;;6.00;99.90;;;6.71;100.00;98667.75;5015277;28;21081;-75
2022/03/17 01:29:26;;;;;;;26.53;16.90;;;6.00;99.90;;;6.68;100.00;98668.88;5015528;28;20469;-75
2022/03/17 01:31:59;;;;;;;28.23;15.67;;;6.00;99.90;;;6.67;100.00;98669.84;5011639;28;20455;-75
2022/03/17 01:34:30;;;;;;;26.53;17.10;;;5.90;99.90;;;6.68;100.00;98671.47;5015711;28;20450;-74
2022/03/17 01:36:59;;;;;;;32.57;17.60;;;6.00;99.90;;;6.69;100.00;98661.91;5013830;28;20528;-75
2022/03/17 01:39:31;;;;;;;22.00;14.43;;;6.10;99.90;;;6.71;100.00;98670.38;5014655;28;20542;-75
2022/03/17 01:42:04;;;;;;;26.97;17.07;;;6.00;99.90;;;6.71;100.00;98670.38;5012241;28;20455;-75
2022/03/17 01:44:34;;;;;;;24.37;15.13;;;5.90;99.90;;;6.70;100.00;98668.75;5014525;28;20466;-75
2022/03/17 01:49:52;;;;;;;28.37;16.40;;;6.00;99.90;;;6.69;100.00;98673.13;5005205;28;20534;-75
2022/03/17 01:52:22;;;;;;;28.20;15.80;;;5.90;99.90;;;6.69;100.00;98675.72;5014650;28;20813;-75
2022/03/17 01:54:53;;;;;;;27.77;15.80;;;5.90;99.90;;;6.71;100.00;98670.38;5012469;28;20463;-75
2022/03/17 01:57:23;;;;;;;29.27;15.77;;;5.90;99.90;;;6.72;100.00;98672.00;5014210;28;20558;-75
2022/03/17 01:59:54;;;;;;;27.07;15.97;;;5.80;99.90;;;6.70;100.00;98666.16;5017303;28;20490;-75
2022/03/17 02:02:26;;;;;;;29.03;15.63;;;5.80;99.90;;;6.71;100.00;98665.16;5012775;28;20974;-75
2022/03/17 02:04:55;;;;;;;26.30;16.43;;;5.90;99.90;;;6.69;100.00;98661.91;5012881;28;20469;-74
2022/03/17 02:07:24;;;;;;;33.87;17.20;;;6.00;99.90;;;6.65;100.00;98660.56;5016335;28;20508;-75
2022/03/17 02:09:53;;;;;;;27.10;16.93;;;5.90;99.90;;;6.68;100.00;98670.66;5017483;28;20447;-75
2022/03/17 02:15:13;;;;;;;34.80;17.03;;;5.90;99.90;;;6.69;100.00;98677.50;5013636;28;20459;-75
2022/03/17 02:17:45;;;;;;;28.53;16.50;;;6.00;99.90;;;6.70;100.00;98668.75;5013873;28;20865;-75
2022/03/17 02:20:16;;;;;;;29.47;15.93;;;6.00;99.90;;;6.67;100.00;98672.44;5009787;28;20969;-74
2022/03/17 02:22:49;;;;;;;24.97;15.60;;;6.00;99.90;;;6.67;100.00;98666.41;5012659;28;20449;-75
2022/03/17 02:25:36;;;;;;;29.60;16.07;;;6.00;99.90;;;6.69;100.00;98661.91;5013790;28;21075;-75
2022/03/17 02:28:08;;;;;;;29.13;16.80;;;5.90;99.90;;;6.70;100.00;98672.13;5014041;28;20486;-75
2022/03/17 02:30:39;;;;;;;32.77;17.20;;;6.00;99.90;;;6.72;100.00;98672.00;5013933;28;20599;-75
2022/03/17 02:33:13;;;;;;;28.77;17.40;;;6.00;99.90;;;6.73;100.00;98658.88;4995317;28;20477;-74
2022/03/17 02:35:45;;;;;;;27.20;16.80;;;6.00;99.90;;;6.72;100.00;98659.00;5012320;28;20516;-75
2022/03/17 02:38:14;;;;;;;30.50;17.00;;;6.00;99.90;;;6.71;100.00;98660.78;5012106;28;20473;-75
2022/03/17 02:40:50;;;;;;;31.37;17.70;;;6.00;99.90;;;6.70;100.00;98658.34;5011840;28;20466;-75
2022/03/17 02:43:20;;;;;;;36.43;17.97;;;6.10;99.90;;;6.70;100.00;98664.34;5015076;28;20473;-75
2022/03/17 02:45:50;;;;;;;34.07;15.57;;;6.10;99.90;;;6.71;100.00;98670.38;5013909;28;21021;-75
2022/03/17 02:48:20;;;;;;;30.73;17.53;;;6.00;99.90;;;6.72;100.00;98666.81;5015510;28;20518;-74
2022/03/17 02:50:51;;;;;;;27.43;16.13;;;6.10;99.90;;;6.74;100.00;98664.88;5011957;28;20462;-75
2022/03/17 02:53:21;;;;;;;26.57;15.50;;;6.10;99.90;;;6.75;100.00;98661.31;5017738;28;20462;-75
2022/03/17 02:55:53;;;;;;;28.00;15.97;;;6.00;99.90;;;6.74;100.00;98664.88;5015874;28;20462;-75
2022/03/17 02:58:24;;;;;;;32.77;18.37;;;6.00;99.90;;;6.73;100.00;98666.69;5017266;28;20470;-75
2022/03/17 03:00:54;;;;;;;28.80;15.70;;;6.10;99.90;;;6.74;100.00;98670.06;5019120;28;21056;-75
2022/03/17 03:03:24;;;;;;;27.40;16.20;;;6.20;99.90;;;6.74;100.00;98670.06;5019187;28;20465;-75
2022/03/17 03:05:55;;;;;;;27.93;16.97;;;6.20;99.90;;;6.74;100.00;98670.88;5016306;28;20525;-75
2022/03/17 03:08:26;;;;;;;25.07;15.77;;;6.10;99.90;;;6.72;100.00;98678.03;5019668;28;20512;-75
2022/03/17 03:10:57;;;;;;;32.43;16.87;;;6.10;99.90;;;6.72;100.00;98670.22;5019126;28;21060;-75
2022/03/17 03:13:27;;;;;;;27.37;16.27;;;6.10;99.90;;;6.75;100.00;98671.72;5018592;28;20463;-75
2022/03/17 03:15:57;;;;;;;27.13;15.73;;;6.10;99.90;;;6.74;100.00;98681.28;5017417;28;20489;-75
2022/03/17 03:18:28;;;;;;;26.93;15.90;;;6.10;99.90;;;6.72;100.00;98691.03;5017023;28;20463;-75
2022/03/17 03:20:58;;;;;;;29.20;16.60;;;6.00;99.90;;;6.74;100.00;98701.25;5014508;28;20841;-74
2022/03/17 03:23:27;;;;;;;29.20;17.63;;;6.10;99.90;;;6.75;100.00;98708.09;5015816;28;20518;-75
2022/03/17 03:25:57;;;;;;;28.40;16.57;;;6.10;99.90;;;6.76;100.00;98704.53;5013311;28;20545;-75
2022/03/17 03:28:27;;;;;;;24.60;16.10;;;6.10;99.90;;;6.75;100.00;98697.69;5016813;28;21000;-75
2022/03/17 03:30:57;;;;;;;24.97;16.00;;;6.10;99.90;;;6.76;100.00;98710.56;5018079;28;20454;-75
2022/03/17 03:33:27;;;;;;;28.00;16.63;;;6.10;99.90;;;6.77;100.00;98703.59;5020895;28;20564;-75
2022/03/17 03:38:44;;;;;;;31.53;15.17;;;6.10;99.90;;;6.77;100.00;98695.78;5016520;28;20859;-75
2022/03/17 03:41:17;;;;;;;29.80;16.73;;;6.00;99.90;;;6.77;100.00;98690.59;5014059;28;20520;-75
2022/03/17 03:43:47;;;;;;;27.17;16.40;;;6.10;99.90;;;6.78;100.00;98692.19;5015494;28;20458;-74
2022/03/17 03:46:16;;;;;;;29.60;15.77;;;6.10;99.90;;;6.80;100.00;98692.88;5016206;28;20537;-75
2022/03/17 03:48:45;;;;;;;28.47;17.13;;;6.10;99.90;;;6.77;100.00;98699.19;5017130;28;20492;-75
2022/03/17 03:51:15;;;;;;;23.93;15.10;;;6.10;99.90;;;6.77;100.00;98700.97;5015075;28;20461;-75
2022/03/17 03:56:34;;;;;;;35.03;18.00;;;6.10;99.90;;;6.78;100.00;98713.00;5012127;28;20544;-75
2022/03/17 03:59:06;;;;;;;28.47;16.30;;;6.10;99.90;;;6.79;100.00;98714.63;5013932;28;20488;-75
2022/03/17 04:01:35;;;;;;;27.80;15.00;;;6.10;99.90;;;6.79;100.00;98725.03;5017443;28;20466;-75
2022/03/17 04:04:06;;;;;;;29.50;17.10;;;6.10;99.90;;;6.79;100.00;98720.66;5018388;28;20472;-75
2022/03/17 04:06:35;;;;;;;30.20;15.87;;;6.10;99.90;;;6.80;100.00;98716.28;5016201;28;21528;-75
2022/03/17 04:09:07;;;;;;;29.27;16.10;;;6.10;99.90;;;6.81;100.00;98725.69;5016816;28;20497;-79
2022/03/17 04:11:37;;;;;;;28.50;15.20;;;6.10;99.90;;;6.82;100.00;98727.34;5014323;28;20469;-75
2022/03/17 04:14:07;;;;;;;30.93;16.27;;;6.00;99.90;;;6.82;100.00;98735.97;5006276;28;20819;-75
2022/03/17 04:16:37;;;;;;;27.30;15.10;;;6.10;99.90;;;6.82;100.00;98746.34;5014630;28;20534;-75
2022/03/17 04:19:09;;;;;;;29.97;17.47;;;6.10;99.90;;;6.81;100.00;98742.09;5014120;28;20474;-77
2022/03/17 04:21:40;;;;;;;32.20;17.40;;;6.20;99.90;;;6.80;100.00;98747.47;5014606;28;20469;-75
2022/03/17 04:24:11;;;;;;;29.00;16.20;;;6.20;99.90;;;6.81;100.00;98747.31;5015943;28;20486;-75
2022/03/17 04:26:43;;;;;;;26.17;15.90;;;6.10;99.90;;;6.81;100.00;98754.28;5018637;28;20474;-75
2022/03/17 04:29:14;;;;;;;26.67;16.30;;;6.10;99.90;;;6.81;100.00;98759.47;5018193;28;20827;-75
2022/03/17 04:31:45;;;;;;;24.80;16.50;;;6.20;99.90;;;6.81;100.00;98764.69;5017689;28;20455;-75
2022/03/17 04:34:15;;;;;;;29.60;16.27;;;6.20;99.90;;;6.81;100.00;98757.69;5014929;28;20470;-75
2022/03/17 04:36:45;;;;;;;25.80;15.90;;;6.10;99.90;;;6.83;100.00;98757.56;5013180;28;20564;-83
2022/03/17 04:39:16;;;;;;;38.90;20.97;;;6.10;99.90;;;6.84;100.00;98754.81;5014338;28;20469;-75
2022/03/17 04:41:48;;;;;;;32.37;16.43;;;6.10;99.90;;;6.83;100.00;98758.41;5013319;28;20970;-75
2022/03/17 04:44:19;;;;;;;25.77;16.33;;;6.10;99.90;;;6.84;100.00;98756.59;5017797;28;20826;-75
2022/03/17 04:46:49;;;;;;;27.40;16.10;;;6.10;99.90;;;6.84;100.00;98764.38;5018091;28;20451;-75
2022/03/17 04:49:19;;;;;;;28.93;16.20;;;6.10;99.90;;;6.83;100.00;98767.97;5016721;28;20979;-75
2022/03/17 04:51:50;;;;;;;27.17;15.50;;;6.20;99.90;;;6.83;100.00;98768.78;5016780;28;20454;-75
2022/03/17 04:54:20;;;;;;;26.33;15.83;;;6.10;99.90;;;6.84;100.00;98769.59;5018579;28;20532;-75
2022/03/17 04:56:51;;;;;;;30.83;15.43;;;6.10;99.90;;;6.84;100.00;98769.59;5018193;28;20465;-75
2022/03/17 04:59:22;;;;;;;32.93;15.70;;;6.10;99.90;;;6.83;100.00;98784.38;5017297;28;20581;-75
2022/03/17 05:01:53;;;;;;;33.60;17.70;;;6.10;99.90;;;6.83;100.00;98794.78;5009011;28;21008;-75
2022/03/17 05:04:24;;;;;;;26.43;17.27;;;6.10;99.90;;;6.84;100.00;98792.97;5017777;28;20442;-75
2022/03/17 05:06:54;;;;;;;25.17;15.17;;;6.10;99.90;;;6.84;100.00;98795.56;5017999;28;20470;-75
2022/03/17 05:09:24;;;;;;;27.30;15.50;;;6.20;99.90;;;6.84;100.00;98790.38;5011531;28;21040;-81
2022/03/17 05:11:55;;;;;;;29.23;17.10;;;6.10;99.90;;;6.84;100.00;98800.78;5014890;28;20466;-75
2022/03/17 05:14:25;;;;;;;33.83;19.50;;;6.10;99.90;;;6.84;100.00;98805.97;5016204;28;20490;-75
2022/03/17 05:16:54;;;;;;;28.33;17.37;;;6.10;99.90;;;6.84;100.00;98805.97;5017836;28;21562;-80
2022/03/17 05:19:24;;;;;;;29.90;16.33;;;6.10;99.90;;;6.84;100.00;98812.00;5017118;28;20470;-74
2022/03/17 05:21:54;;;;;;;24.90;15.37;;;6.20;99.90;;;6.85;100.00;98815.41;5014615;28;20941;-75
2022/03/17 05:24:24;;;;;;;29.97;15.60;;;6.10;99.90;;;6.84;100.00;98817.19;5017418;28;20462;-75
2022/03/17 05:26:56;;;;;;;28.37;15.70;;;6.10;99.90;;;6.82;100.00;98823.50;5017127;28;20457;-75
2022/03/17 05:29:25;;;;;;;31.67;19.35;;;6.00;99.90;;;6.83;100.00;98825.97;5018720;28;20545;-74
2022/03/17 05:31:54;;;;;;;26.97;16.57;;;6.00;99.90;;;6.82;100.00;98818.31;5020238;28;20576;-75
2022/03/17 05:34:24;;;;;;;31.47;16.90;;;6.00;99.90;;;6.81;100.00;98811.47;5020454;28;20454;-75
2022/03/17 05:36:54;;;;;;;27.47;17.27;;;6.00;99.90;;;6.79;100.00;98814.22;5019493;28;21054;-74
2022/03/17 05:39:25;;;;;;;26.57;16.17;;;6.10;99.90;;;6.76;100.00;98818.88;5020135;28;20474;-75
2022/03/17 05:41:57;;;;;;;25.30;15.77;;;6.00;99.90;;;6.75;100.00;98823.28;5018902;28;20449;-75
2022/03/17 05:44:32;;;;;;;35.10;16.37;;;5.90;99.90;;;6.74;100.00;98826.81;5020566;28;20443;-74
2022/03/17 05:47:02;;;;;;;28.20;16.73;;;5.90;99.90;;;6.72;100.00;98825.34;5019506;28;20454;-75
2022/03/17 05:49:33;;;;;;;27.57;16.30;;;5.90;99.90;;;6.68;100.00;98822.19;5018477;28;20831;-74
2022/03/17 05:52:05;;;;;;;30.93;16.47;;;5.90;99.90;;;6.68;100.00;98826.56;5016387;28;20820;-75
2022/03/17 05:54:35;;;;;;;30.90;15.07;;;5.90;99.90;;;6.66;100.00;98828.50;5015705;28;20458;-75
2022/03/17 05:57:06;;;;;;;26.67;16.13;;;5.90;99.90;;;6.65;100.00;98826.88;5016556;28;20446;-75
2022/03/17 05:59:39;;;;;;;31.63;17.93;;;6.00;99.90;;;6.62;100.00;98833.19;5014846;28;20479;-75
2022/03/17 06:02:09;;;;;;;25.90;16.17;;;5.90;99.90;;;6.59;100.00;98844.66;5016375;28;20477;-75
2022/03/17 06:04:46;;;;;;;27.93;16.50;;;5.90;99.90;;;6.57;100.00;98840.56;5016973;28;20463;-75
2022/03/17 06:07:16;;;;;;;31.20;15.87;;;5.90;99.90;;;6.58;100.00;98844.81;5017678;28;20961;-75
2022/03/17 06:09:46;;;;;;;29.80;16.60;;;5.80;99.90;;;6.58;100.00;98852.59;5017591;28;20482;-75
2022/03/17 06:12:18;;;;;;;30.23;16.97;;;5.80;99.90;;;6.57;100.00;98859.56;5015582;28;20458;-74
2022/03/17 06:14:49;;;;;;;29.40;17.20;;;5.70;99.90;;;6.58;100.00;98857.81;5014643;28;20494;-75
2022/03/17 06:17:19;;;;;;;31.57;17.40;;;5.70;99.90;;;6.56;100.00;98865.72;5010622;28;20455;-75
2022/03/17 06:19:50;;;;;;;29.90;16.60;;;5.70;99.90;;;6.57;100.00;98862.16;5011553;28;20497;-75
2022/03/17 06:22:20;;;;;;;26.90;16.70;;;5.70;99.90;;;6.58;100.00;98866.41;5011263;28;20493;-75
2022/03/17 06:24:50;;;;;;;25.07;14.70;;;5.80;99.90;;;6.57;100.00;98867.38;5015824;28;21025;-75
2022/03/17 06:27:22;;;;;;;25.90;15.80;;;5.80;99.90;;;6.59;100.00;98869.84;5019859;28;20961;-74
2022/03/17 06:29:51;;;;;;;27.33;15.73;;;5.90;99.90;;;6.59;100.00;98875.81;5021159;28;20883;-75
2022/03/17 06:32:24;;;;;;;34.77;17.50;;;5.80;99.90;;;6.61;100.00;98880.06;5024763;28;20442;-75
2022/03/17 06:34:54;;;;;;;27.27;17.40;;;5.90;99.90;;;6.64;100.00;98872.00;5024290;28;20984;-75
2022/03/17 06:37:25;;;;;;;25.20;16.00;;;5.90;99.90;;;6.63;100.00;98868.56;5024626;28;20504;-75
2022/03/17 06:39:54;;;;;;;30.00;17.00;;;5.90;99.90;;;6.66;100.00;98877.88;5023414;28;20468;-74
2022/03/17 06:42:27;;;;;;;30.40;16.80;;;5.80;99.90;;;6.67;100.00;98884.69;5024343;28;20458;-75
2022/03/17 06:44:58;;;;;;;28.97;18.00;;;5.80;99.90;;;6.67;100.00;98887.28;5024663;28;20457;-75
2022/03/17 06:47:29;;;;;;;28.97;17.40;;;5.90;99.90;;;6.69;100.00;98900.97;5025738;28;20537;-75
2022/03/17 06:49:58;;;;;;;36.57;17.70;;;5.90;99.90;;;6.69;100.00;98907.00;5022105;28;20497;-75
2022/03/17 06:52:27;;;;;;;32.37;18.60;;;5.90;99.90;;;6.70;100.00;98915.63;5023843;28;20481;-75
2022/03/17 06:54:57;;;;;;;36.67;18.27;;;6.00;99.90;;;6.73;100.00;98923.13;5023858;28;20453;-74
2022/03/17 06:57:27;;;;;;;28.73;17.10;;;6.00;99.90;;;6.75;100.00;98921.19;5022293;28;20806;-75
2022/03/17 06:59:56;;;;;;;39.33;18.47;;;6.00;99.90;;;6.76;100.00;98926.28;5022735;28;20483;-75
2022/03/17 07:02:26;;;;;;;30.07;17.10;;;6.10;99.90;;;6.80;100.00;98934.59;5022089;28;20496;-75
2022/03/17 07:04:56;;;;;;;33.27;20.07;;;6.10;99.90;;;6.82;100.00;98927.47;5022742;28;20476;-75
2022/03/17 07:07:27;;;;;;;33.17;19.63;;;6.10;99.90;;;6.84;100.00;98934.16;5022934;28;21021;-74
2022/03/17 07:09:57;;;;;;;29.13;17.67;;;6.10;99.90;;;6.87;100.00;98939.06;5023262;28;20481;-75
2022/03/17 07:12:28;;;;;;;28.77;17.70;;;6.10;99.90;;;6.92;100.00;98943.84;5021996;28;21010;-75
2022/03/17 07:14:58;;;;;;;29.13;18.57;;;6.10;99.90;;;6.93;100.00;98941.13;5023291;28;20528;-75
2022/03/17 07:17:36;;;;;;;38.73;19.67;;;6.10;99.90;;;6.98;100.00;98940.69;5023312;28;20458;-75
2022/03/17 07:20:09;;;;;;;34.70;19.00;;;6.20;99.90;;;7.01;100.00;98943.81;5020497;28;20497;-75
2022/03/17 07:22:39;;;;;;;27.90;16.47;;;6.30;99.90;;;7.03;100.00;98951.50;5021595;28;20489;-75
2022/03/17 07:25:12;;;;;;;27.80;17.50;;;6.30;99.90;;;7.06;100.00;98951.22;5023469;28;20808;-75
2022/03/17 07:27:45;;;;;;;30.77;18.20;;;6.30;99.90;;;7.09;100.00;98953.50;5023306;28;20442;-75
2022/03/17 07:30:19;;;;;;;31.10;18.53;;;6.30;99.90;;;7.13;100.00;98951.44;5023284;28;20485;-74
2022/03/17 07:32:52;;;;;;;29.60;18.60;;;6.40;99.90;;;7.17;100.00;98964.03;5022811;28;20869;-75
2022/03/17 07:35:23;;;;;;;26.50;16.93;;;6.40;99.90;;;7.20;100.00;98962.94;5023410;28;20442;-75
2022/03/17 07:37:52;;;;;;;33.50;19.30;;;6.50;99.90;;;7.23;100.00;98967.84;5022055;28;20496;-75
2022/03/17 07:40:21;;;;;;;30.87;17.73;;;6.50;99.90;;;7.25;100.00;98964.16;5022488;28;20500;-75
2022/03/17 07:42:55;;;;;;;28.63;19.03;;;6.50;99.90;;;7.27;100.00;98972.63;5022692;28;20470;-75
2022/03/17 07:45:25;;;;;;;30.13;17.77;;;6.50;99.90;;;7.31;100.00;98971.38;5021128;28;20447;-75
2022/03/17 07:47:58;;;;;;;34.43;20.27;;;6.50;99.90;;;7.32;100.00;98980.81;5020958;28;20462;-74
2022/03/17 07:50:29;;;;;;;38.07;20.43;;;6.50;99.90;;;7.35;100.00;98980.53;5017614;28;20936;-75
2022/03/17 07:52:59;;;;;;;31.63;19.63;;;6.70;99.90;;;7.40;100.00;98985.28;5019897;28;20458;-74
2022/03/17 07:55:30;;;;;;;31.50;19.70;;;6.80;99.90;;;7.41;100.00;98987.75;5018954;28;20980;-75
2022/03/17 07:58:02;;;;;;;35.37;20.53;;;6.70;99.90;;;7.46;100.00;98995.16;5020464;28;20486;-75
2022/03/17 08:00:31;;;;;;;34.07;20.10;;;6.80;99.90;;;7.49;100.00;98985.28;5017777;28;20455;-75
2022/03/17 08:03:04;;;;;;;34.30;20.30;;;6.80;99.90;;;7.51;100.00;98993.75;5019969;28;20595;-75
2022/03/17 08:05:36;;;;;;;37.10;21.73;;;6.90;99.90;;;7.55;100.00;98989.88;5020431;28;20455;-74
2022/03/17 08:08:08;;;;;;;37.47;21.00;;;6.90;99.90;;;7.59;100.00;98985.22;5018957;28;20508;-74
2022/03/17 08:10:40;;;;;;;35.37;21.50;;;6.90;99.90;;;7.61;100.00;98993.69;5019187;28;20494;-75
2022/03/17 08:13:14;;;;;;;35.97;20.50;;;7.00;99.90;;;7.64;100.00;99005.59;5020456;28;20477;-75
2022/03/17 08:15:44;;;;;;;38.03;22.23;;;7.00;99.90;;;7.66;100.00;99008.88;5019004;28;20469;-75
2022/03/17 08:18:15;;;;;;;39.83;22.73;;;7.00;99.90;;;7.67;100.00;99010.53;5012143;28;21028;-75
2022/03/17 08:20:45;;;;;;;36.57;21.20;;;7.10;99.90;;;7.70;100.00;99015.44;5018258;28;20446;-74
2022/03/17 08:23:21;;;;;;;41.30;22.70;;;7.00;99.90;;;7.73;100.00;99022.94;5018090;28;20974;-75
2022/03/17 08:25:51;;;;;;;35.37;21.37;;;7.00;99.90;;;7.74;100.00;99027.22;5018261;28;20458;-75
2022/03/17 08:28:24;;;;;;;36.70;21.53;;;7.10;99.90;;;7.75;100.00;99026.22;5018992;28;20455;-75
2022/03/17 08:30:55;;;;;;;34.40;19.63;;;7.10;99.90;;;7.78;100.00;99033.75;5020056;28;20502;-75
2022/03/17 08:33:26;;;;;;;32.60;20.70;;;7.10;99.90;;;7.80;100.00;99034.44;5021769;28;20454;-75
2022/03/17 08:35:56;;;;;;;35.20;20.80;;;7.10;99.90;;;7.84;100.00;99043.59;5021409;28;20868;-75
2022/03/17 08:38:26;;;;;;;30.37;20.00;;;7.20;99.90;;;7.86;100.00;99044.25;5022107;28;20791;-74
2022/03/17 08:40:56;;;;;;;39.57;21.60;;;7.10;99.90;;;7.88;100.00;99043.13;5020347;28;20443;-75
2022/03/17 08:43:28;;;;;;;36.13;22.23;;;7.20;99.90;;;7.90;100.00;99049.03;5022471;28;20477;-75
2022/03/17 08:51:35;;;;;;;36.20;21.27;;;7.30;99.90;;;7.96;100.00;99063.25;5020513;28;20493;-75
2022/03/17 08:54:04;;;;;;;36.90;21.57;;;7.20;99.90;;;7.98;100.00;99071.75;5021998;28;21027;-75
2022/03/17 08:56:36;;;;;;;39.27;24.67;;;7.30;99.90;;;7.99;100.00;99081.19;5021050;28;20905;-75
2022/03/17 08:59:06;;;;;;;51.43;21.67;;;7.30;99.90;;;7.99;100.00;99078.59;5020154;28;20544;-75
2022/03/17 09:01:38;;;;;;;37.03;20.67;;;7.30;99.90;;;8.00;100.00;99086.25;5020266;28;20506;-75
2022/03/17 09:04:07;;;;;;;34.23;19.70;;;7.30;99.90;;;8.03;100.00;99087.75;5021026;28;20908;-75
2022/03/17 09:06:41;;;;;;;34.57;20.53;;;7.30;99.90;;;8.04;100.00;99089.41;5021319;28;20968;-75
2022/03/17 09:09:12;;;;;;;39.77;20.50;;;7.30;99.90;;;8.03;100.00;99099.00;5021647;28;20442;-75
2022/03/17 09:11:47;;;;;;;31.70;20.20;;;7.30;99.90;;;8.04;100.00;99095.44;5020248;28;20494;-75
2022/03/17 09:14:18;;;;;;;36.87;21.87;;;7.40;99.90;;;8.04;100.00;99092.81;5021890;28;20461;-74
2022/03/17 09:16:48;;;;;;;30.50;20.80;;;7.40;99.90;;;8.06;100.00;99103.91;5020301;28;20520;-75
2022/03/17 09:19:20;;;;;;;39.90;22.20;;;7.40;99.90;;;8.07;100.00;99102.94;5020513;28;20442;-75
2022/03/17 09:21:49;;;;;;;31.80;20.03;;;7.40;99.90;;;8.08;100.00;99107.22;5021405;28;20450;-74
2022/03/17 09:24:20;;;;;;;32.70;19.73;;;7.40;99.90;;;8.10;100.00;99110.47;5021187;28;20537;-75
2022/03/17 09:26:49;;;;;;;34.17;22.80;;;7.40;99.90;;;8.10;100.00;99118.28;5020755;28;20442;-75
2022/03/17 09:29:20;;;;;;;34.33;20.87;;;7.40;99.90;;;8.10;100.00;99120.06;5022236;28;20450;-76
2022/03/17 09:31:52;;;;;;;31.50;19.90;;;7.40;99.90;;;8.12;100.00;99120.75;5020520;28;20481;-74
2022/03/17 09:34:23;;;;;;;35.50;20.00;;;7.50;99.90;;;8.12;100.00;99123.38;5020296;28;20458;-75
2022/03/17 09:36:52;;;;;;;47.83;22.20;;;7.50;99.90;;;8.14;100.00;99126.63;5021345;28;20446;-75
2022/03/17 09:39:44;;;;;;;36.27;20.40;;;7.50;99.90;;;8.15;100.00;99136.09;5020313;28;20451;-75
2022/03/17 09:42:15;;;;;;;36.43;20.13;;;7.50;99.90;;;8.18;100.00;99137.59;5020990;28;20469;-74
2022/03/17 09:44:51;;;;;;;38.93;21.47;;;7.50;99.90;;;8.18;100.00;99143.63;5020053;28;20438;-75
2022/03/17 09:47:27;;;;;;;36.27;22.60;;;7.50;99.90;;;8.19;100.00;99150.44;5017047;28;20449;-74
2022/03/17 09:49:59;;;;;;;32.23;19.97;;;7.60;99.90;;;8.19;100.00;99150.44;5016371;28;20451;-75
2022/03/17 09:52:31;;;;;;;35.17;21.90;;;7.70;99.90;;;8.18;100.00;99148.84;5016297;28;20493;-75
2022/03/17 09:55:01;;;;;;;35.90;20.40;;;7.60;99.90;;;8.19;100.00;99145.25;5017413;28;21185;-75
2022/03/17 09:57:32;;;;;;;35.73;21.60;;;7.60;99.90;;;8.22;100.00;99155.41;5016915;28;20465;-74
2022/03/17 10:00:06;;;;;;;33.60;21.10;;;7.60;99.90;;;8.25;100.00;99159.50;5016517;28;20483;-75
2022/03/17 10:02:37;;;;;;;37.93;21.90;;;7.70;99.90;;;8.28;100.00;99174.84;5018498;28;20446;-75
2022/03/17 10:05:11;;;;;;;36.33;21.63;;;7.70;99.90;;;8.32;100.00;99184.88;5016386;28;20458;-75
2022/03/17 10:07:41;;;;;;;35.63;20.50;;;7.80;99.90;;;8.35;100.00;99191.56;5017695;28;20451;-75
2022/03/17 10:10:11;;;;;;;34.93;20.80;;;7.80;99.90;;;8.38;100.00;99193.88;5015037;28;20449;-74
2022/03/17 10:12:40;;;;;;;35.67;19.60;;;7.90;99.90;;;8.43;100.00;99202.91;5017404;28;20494;-75
2022/03/17 10:15:19;;;;;;;33.27;19.70;;;7.90;99.90;;;8.46;100.00;99207.84;5016955;28;20962;-74
2022/03/17 10:17:50;;;;;;;29.43;16.97;;;7.90;99.90;;;8.50;100.00;99211.78;5015021;28;20437;-75
2022/03/17 10:20:24;;;;;;;18.57;12.27;;;8.00;99.90;;;8.57;100.00;99217.25;5014852;28;20442;-74
2022/03/17 10:22:56;;;;;;;22.47;13.80;;;8.20;99.90;;;8.58;100.00;99209.28;5014575;28;20443;-74
2022/03/17 10:25:29;;;;;;;19.97;12.40;;;8.10;99.90;;;8.59;100.00;99223.97;5016341;28;20513;-75
2022/03/17 10:28:01;;;;;;;21.50;12.57;;;8.10;99.90;;;8.62;100.00;99228.06;5017257;28;20514;-75
2022/03/17 10:30:37;;;;;;;19.50;11.93;;;8.00;99.90;;;8.65;100.00;99234.75;5019527;28;20477;-74
2022/03/17 10:33:14;;;;;;;18.10;10.97;;;8.10;99.90;;;8.67;100.00;99238.88;5019456;28;20996;-75
2022/03/17 10:35:46;;;;;;;19.60;11.47;;;8.10;99.90;;;8.69;100.00;99246.53;5021659;28;20494;-75
2022/03/17 10:38:19;;;;;;;19.53;11.40;;;8.20;99.90;;;8.72;100.00;99241.03;5019980;28;20944;-75
2022/03/17 10:41:02;;;;;;;15.57;10.10;;;8.20;99.90;;;8.74;100.00;99239.94;5019001;28;20510;-75
2022/03/17 10:43:33;;;;;;;19.27;11.37;;;8.20;99.90;;;8.75;100.00;99245.94;5020104;28;20442;-75
2022/03/17 10:46:11;;;;;;;17.17;11.50;;;8.20;99.90;;;8.77;100.00;99251.84;5020266;28;20508;-75